Astoria, OR (97103)

10:49 PM PST on February 20, 2017 (GMT -0800)
Astoria | | Change Station

Elev 236 ft 46.18 °N, 123.83 °W | Updated 9 seconds ago

Overcast
Overcast
45.0 °F
Feels Like 45 °F
N
1.0
Wind Variable Wind from ESE

Today
High -- | Low -- °F
--% Chance of Precip.
Yesterday
High -- | Low -- °F
Precip. -- in
Pressure 29.67 in
Visibility 10.0 miles
Clouds Few 300 ft
Mostly Cloudy 2900 ft
Mostly Cloudy 3900 ft
Windchill 45 °F
Dew Point 41 °F
Humidity 86%
Rainfall 0.48 in
Snow Depth Not available.
7:09 AM 5:49 PM
Waning Crescent, 27% visible
SPECI KAST 210645Z AUTO 00000KT 10SM FEW003 BKN029 BKN039 06/05 A2967 RMK AO2 T00560050
Pressure 29.67 in
Visibility 10.0 miles
Clouds Few 300 ft
Mostly Cloudy 2900 ft
Mostly Cloudy 3900 ft
Windchill 45 °F
Dew Point 41 °F
Humidity 86%
Rainfall 0.48 in
Snow Depth Not available.
7:09 AM 5:49 PM
Waning Crescent, 27% visible
SPECI KAST 210645Z AUTO 00000KT 10SM FEW003 BKN029 BKN039 06/05 A2967 RMK AO2 T00560050

Get Your Daily Forecast Email!

Thanks for signing up!

Be on the lookout for a verification email in your inbox.

You'll start receiving the daily forecast at 8 AM.

×

10-Day Weather Forecast

Almanac

Astronomy

Feb. 20, 2017 Rise Set
Actual Time
Civil Twilight
Nautical Twilight
Astronomical Twilight
Moon
Length of Visible Light
Length of Day
Tomorrow will be .
, % of the Moon is Illuminated

Today's Extremes

State Highs State Lows

Community

WunderPhotos

Upload Photos

1,962,540 photos uploaded!

WunderBlog® & News

Nearby

Air Quality

  Air Quality AQ Index Pollutant
Not available.

Snow Depth

Station Depth Elevation

Earthquake Activity

City Distance Mag. Time & Date
Minimum magnitude displayed is 2.5.

Coastal Water Temperatures

Place Temperature

Stations

Nearby Weather Stations

Station Location Temp. Windchill Dew Point Humidity Wind Precip. Elev Updated Type
                   

Watches & Warnings

There are currently no watches in effect.